Time;durP1;ratioP1;P1;durP2;ratioP2;P2;SDS_P1;SDS_P2;PMS_P1;PMS_P2;Temp;Humidity;BMP_temperature;BMP_pressure;BME280_temperature;BME280_humidity;BME280_pressure;Samples;Min_cycle;Max_cycle;Signal;HPM_P1;HPM_P2
2021/08/14 00:00:00;;;;;;;6.35;3.85;;;18.40;95.10;;;;;;5069268;28;20024;-46
2021/08/14 00:02:25;;;;;;;8.18;4.65;;;18.30;95.10;;;;;;5068924;28;20025;-46
2021/08/14 00:04:51;;;;;;;9.65;4.70;;;18.20;95.30;;;;;;5068239;28;20028;-47
2021/08/14 00:07:16;;;;;;;8.90;5.20;;;18.20;95.50;;;;;;5068961;28;20116;-46
2021/08/14 00:09:42;;;;;;;6.35;4.10;;;18.10;95.60;;;;;;5068228;28;20437;-46
2021/08/14 00:12:08;;;;;;;6.35;3.92;;;18.10;95.80;;;;;;5068489;28;20032;-46
2021/08/14 00:14:34;;;;;;;8.45;4.85;;;18.00;95.80;;;;;;5068318;28;20051;-46
2021/08/14 00:17:00;;;;;;;8.88;4.63;;;18.00;95.90;;;;;;5068795;28;20021;-47
2021/08/14 00:19:26;;;;;;;10.00;4.50;;;17.90;96.00;;;;;;5069080;28;20149;-48
2021/08/14 00:21:51;;;;;;;5.82;3.92;;;17.90;96.10;;;;;;5068873;28;20029;-46
2021/08/14 00:24:17;;;;;;;6.15;4.00;;;17.80;96.40;;;;;;5068606;28;20029;-46
2021/08/14 00:26:42;;;;;;;6.93;3.75;;;17.80;96.50;;;;;;5068852;28;20671;-46
2021/08/14 00:29:08;;;;;;;7.13;4.07;;;17.80;96.60;;;;;;5068949;28;20031;-47
2021/08/14 00:31:34;;;;;;;7.15;4.32;;;17.70;96.60;;;;;;5068771;28;20111;-48
2021/08/14 00:33:59;;;;;;;10.93;4.60;;;17.70;96.70;;;;;;5067852;28;20388;-47
2021/08/14 00:36:25;;;;;;;11.10;4.32;;;17.70;96.90;;;;;;5059880;28;20032;-47
2021/08/14 00:38:50;;;;;;;6.07;3.67;;;17.70;97.30;;;;;;5064502;28;20676;-48
2021/08/14 00:41:16;;;;;;;6.35;3.85;;;17.60;97.50;;;;;;5057313;28;20013;-48
2021/08/14 00:43:43;;;;;;;5.35;3.95;;;17.60;97.90;;;;;;5056324;28;20060;-46
2021/08/14 00:46:09;;;;;;;5.50;3.60;;;17.60;97.90;;;;;;5057351;28;20619;-46
2021/08/14 00:48:35;;;;;;;5.15;3.90;;;17.60;98.10;;;;;;5057119;28;20108;-48
2021/08/14 00:51:01;;;;;;;6.05;4.05;;;17.60;98.20;;;;;;5060068;28;20390;-46
2021/08/14 00:53:27;;;;;;;8.23;4.28;;;17.50;98.60;;;;;;5055853;28;20095;-46
2021/08/14 00:55:54;;;;;;;8.48;4.07;;;17.50;99.10;;;;;;5058128;28;20037;-46
2021/08/14 00:58:20;;;;;;;6.38;3.67;;;17.50;99.30;;;;;;5057025;28;20597;-46
2021/08/14 01:00:46;;;;;;;7.55;3.88;;;17.40;99.50;;;;;;5056617;28;20106;-45
2021/08/14 01:03:13;;;;;;;7.45;4.53;;;17.40;99.50;;;;;;5059297;28;20025;-45
2021/08/14 01:05:42;;;;;;;6.38;4.07;;;17.40;99.50;;;;;;5056636;28;20381;-46
2021/08/14 01:08:08;;;;;;;11.15;4.00;;;17.30;99.90;;;;;;5057209;28;20013;-46
2021/08/14 01:10:34;;;;;;;5.28;3.90;;;17.30;99.90;;;;;;5055520;28;20108;-46
2021/08/14 01:12:59;;;;;;;10.35;4.45;;;17.30;99.90;;;;;;5046995;28;20422;-46
2021/08/14 01:15:25;;;;;;;7.13;3.95;;;17.30;99.90;;;;;;5047681;28;20036;-46
2021/08/14 01:17:51;;;;;;;7.15;3.47;;;17.30;99.90;;;;;;5048127;28;20496;-48
2021/08/14 01:20:17;;;;;;;9.95;4.18;;;17.30;99.90;;;;;;5048181;28;20116;-45
2021/08/14 01:22:42;;;;;;;6.78;3.25;;;17.30;99.90;;;;;;5050809;28;20096;-46
2021/08/14 01:25:09;;;;;;;10.57;4.15;;;17.30;99.90;;;;;;5051359;28;20059;-46
2021/08/14 01:27:37;;;;;;;5.93;3.75;;;17.30;99.90;;;;;;5050853;28;20449;-48
2021/08/14 01:30:06;;;;;;;9.82;3.95;;;17.40;99.90;;;;;;5051722;28;20400;-46
2021/08/14 01:32:33;;;;;;;8.27;4.50;;;17.40;99.90;;;;;;5051981;28;20037;-46
2021/08/14 01:34:59;;;;;;;5.75;3.60;;;17.40;99.90;;;;;;5051624;28;20185;-46
2021/08/14 01:37:26;;;;;;;5.30;3.20;;;17.40;99.90;;;;;;5052258;28;20391;-46
2021/08/14 01:39:52;;;;;;;8.02;4.00;;;17.30;99.90;;;;;;5050576;28;20471;-45
2021/08/14 01:42:17;;;;;;;7.93;3.97;;;17.20;99.90;;;;;;5051844;28;20048;-46
2021/08/14 01:44:43;;;;;;;7.25;3.35;;;17.20;99.90;;;;;;5050910;28;20379;-46
2021/08/14 01:47:10;;;;;;;6.28;3.22;;;17.10;99.90;;;;;;5052045;28;20028;-46
2021/08/14 01:49:35;;;;;;;4.60;3.58;;;17.00;99.90;;;;;;5051831;28;20049;-46
2021/08/14 01:52:17;;;;;;;6.68;3.08;;;17.00;99.90;;;;;;5051816;28;20056;-46
2021/08/14 01:54:43;;;;;;;5.43;3.55;;;17.00;99.90;;;;;;5051589;28;20482;-46
2021/08/14 01:57:09;;;;;;;8.23;3.90;;;16.90;99.90;;;;;;5052016;28;20045;-46
2021/08/14 01:59:35;;;;;;;6.00;3.67;;;16.90;99.90;;;;;;5051465;28;20024;-46
2021/08/14 02:02:02;;;;;;;8.88;4.32;;;16.90;99.90;;;;;;5050212;28;20420;-45
2021/08/14 02:04:28;;;;;;;4.28;3.35;;;16.80;99.90;;;;;;5051066;28;20059;-45
2021/08/14 02:06:54;;;;;;;9.63;3.90;;;16.70;99.90;;;;;;5051226;28;20029;-45
2021/08/14 02:09:19;;;;;;;7.68;3.40;;;16.80;99.90;;;;;;5051366;28;20029;-45
2021/08/14 02:11:45;;;;;;;6.50;3.67;;;16.70;99.90;;;;;;5051228;28;20104;-45
2021/08/14 02:14:12;;;;;;;8.15;3.80;;;16.70;99.90;;;;;;5050487;28;20075;-45
2021/08/14 02:16:38;;;;;;;6.28;3.60;;;16.70;99.90;;;;;;5051403;28;20024;-47
2021/08/14 02:19:04;;;;;;;6.63;3.50;;;16.70;99.90;;;;;;5051096;28;20027;-45
2021/08/14 02:21:29;;;;;;;5.93;3.60;;;16.70;99.90;;;;;;5051189;28;20029;-45
2021/08/14 02:23:55;;;;;;;8.60;3.83;;;16.60;99.90;;;;;;5049029;28;20493;-46
2021/08/14 02:26:21;;;;;;;7.13;3.85;;;16.60;99.90;;;;;;5049443;28;20086;-46
2021/08/14 02:28:47;;;;;;;5.32;3.60;;;16.60;99.90;;;;;;5050758;28;20029;-46
2021/08/14 02:31:13;;;;;;;8.75;4.07;;;16.60;99.90;;;;;;5050943;28;20430;-45
2021/08/14 02:33:38;;;;;;;7.70;4.15;;;16.60;99.90;;;;;;5049016;28;20025;-45
2021/08/14 02:36:06;;;;;;;8.30;3.92;;;16.60;99.90;;;;;;5050742;28;20106;-45
2021/08/14 02:38:33;;;;;;;7.57;4.10;;;16.60;99.90;;;;;;5051007;28;20033;-45
2021/08/14 02:41:00;;;;;;;8.40;4.25;;;16.60;99.90;;;;;;5050473;28;20052;-46
2021/08/14 02:43:25;;;;;;;8.27;4.03;;;16.50;99.90;;;;;;5050140;28;20367;-46
2021/08/14 02:45:51;;;;;;;6.63;4.13;;;16.50;99.90;;;;;;5050575;28;20036;-45
2021/08/14 02:48:16;;;;;;;8.55;4.43;;;16.40;99.90;;;;;;5050602;28;20071;-45
2021/08/14 02:50:43;;;;;;;8.82;4.78;;;16.40;99.90;;;;;;5050505;28;20029;-45
2021/08/14 02:53:09;;;;;;;10.27;4.85;;;16.30;99.90;;;;;;5050448;28;20465;-45
2021/08/14 02:55:35;;;;;;;8.77;4.65;;;16.30;99.90;;;;;;5049954;28;20040;-45
2021/08/14 02:58:00;;;;;;;8.07;3.92;;;16.20;99.90;;;;;;5050826;28;20021;-45
2021/08/14 03:00:26;;;;;;;6.53;4.07;;;16.20;99.90;;;;;;5050757;28;20060;-45
2021/08/14 03:02:51;;;;;;;9.00;4.38;;;16.20;99.90;;;;;;5050329;28;20029;-46
2021/08/14 03:05:17;;;;;;;10.32;5.53;;;16.20;99.90;;;;;;5049814;28;20039;-46
2021/08/14 03:07:42;;;;;;;9.45;4.65;;;16.10;99.90;;;;;;5050260;28;20143;-46
2021/08/14 03:10:08;;;;;;;11.95;5.68;;;16.10;99.90;;;;;;5049980;28;20040;-46
2021/08/14 03:12:34;;;;;;;12.80;5.80;;;16.00;99.90;;;;;;5048515;28;20025;-46
2021/08/14 03:14:59;;;;;;;12.07;5.40;;;15.90;99.90;;;;;;5047931;28;20113;-46
2021/08/14 03:17:24;;;;;;;7.60;4.85;;;15.90;99.90;;;;;;5048455;28;20391;-46
2021/08/14 03:19:50;;;;;;;9.40;4.72;;;15.90;99.90;;;;;;5050042;28;20055;-46
2021/08/14 03:22:15;;;;;;;12.40;5.28;;;16.00;99.90;;;;;;5031765;28;20540;-46
2021/08/14 03:24:41;;;;;;;13.20;5.85;;;15.90;99.90;;;;;;5048914;28;20025;-46
2021/08/14 03:27:07;;;;;;;9.88;5.28;;;15.90;99.90;;;;;;5049538;28;20159;-48
2021/08/14 03:29:33;;;;;;;15.35;6.65;;;15.90;99.90;;;;;;5049867;28;20025;-46
2021/08/14 03:31:59;;;;;;;11.07;5.78;;;15.80;99.90;;;;;;5049396;28;20033;-46
2021/08/14 03:34:24;;;;;;;7.18;4.93;;;15.80;99.90;;;;;;5048872;28;20048;-46
2021/08/14 03:36:50;;;;;;;10.30;5.18;;;15.70;99.90;;;;;;5049358;28;20127;-46
2021/08/14 03:39:16;;;;;;;11.60;5.53;;;15.70;99.90;;;;;;5049552;28;20040;-46
2021/08/14 03:41:42;;;;;;;9.88;5.47;;;15.60;99.90;;;;;;5049637;28;20467;-46
2021/08/14 03:44:07;;;;;;;10.00;5.65;;;15.60;99.90;;;;;;5047346;28;20029;-46
2021/08/14 03:46:33;;;;;;;14.02;6.88;;;15.60;99.90;;;;;;5048142;28;20025;-46
2021/08/14 03:48:58;;;;;;;7.93;5.55;;;15.60;99.90;;;;;;5049314;28;20108;-46
2021/08/14 03:51:24;;;;;;;11.05;5.90;;;15.60;99.90;;;;;;5049322;28;20090;-46
2021/08/14 03:53:49;;;;;;;8.48;4.72;;;15.60;99.90;;;;;;5047409;28;20116;-46
2021/08/14 03:56:15;;;;;;;9.65;5.32;;;15.60;99.90;;;;;;5049128;28;20032;-46
2021/08/14 03:58:40;;;;;;;18.38;5.75;;;15.60;99.90;;;;;;5049254;28;20568;-46
2021/08/14 04:01:06;;;;;;;8.43;4.35;;;15.70;99.90;;;;;;5048897;28;20025;-47
2021/08/14 04:03:32;;;;;;;9.20;5.20;;;15.70;99.90;;;;;;5048395;28;20652;-46
2021/08/14 04:05:58;;;;;;;8.98;4.88;;;15.70;99.90;;;;;;5048771;28;20057;-47
2021/08/14 04:08:24;;;;;;;11.27;5.13;;;15.70;99.90;;;;;;5048816;28;20395;-46
2021/08/14 04:10:49;;;;;;;10.52;5.63;;;15.70;99.90;;;;;;5048895;28;20025;-45
2021/08/14 04:13:15;;;;;;;11.43;5.05;;;15.70;99.90;;;;;;5048320;28;20410;-45
2021/08/14 04:15:40;;;;;;;12.98;5.68;;;15.80;99.90;;;;;;5048297;28;20494;-45
2021/08/14 04:18:06;;;;;;;12.20;6.18;;;15.80;99.90;;;;;;5048646;28;20044;-45
2021/08/14 04:20:32;;;;;;;10.73;5.35;;;15.80;99.90;;;;;;5048681;28;20052;-46
2021/08/14 04:22:58;;;;;;;14.73;5.90;;;15.70;99.90;;;;;;5048450;28;20524;-46
2021/08/14 04:25:24;;;;;;;13.27;6.13;;;15.70;99.90;;;;;;5047778;28;20284;-46
2021/08/14 04:27:49;;;;;;;16.25;6.07;;;15.70;99.90;;;;;;5048516;28;20029;-46
2021/08/14 04:30:15;;;;;;;7.43;5.13;;;15.70;99.90;;;;;;5048838;28;20391;-47
2021/08/14 04:32:40;;;;;;;10.23;6.38;;;15.70;99.90;;;;;;5048614;28;20034;-47
2021/08/14 04:35:08;;;;;;;8.38;5.25;;;15.80;99.90;;;;;;5048103;28;20029;-46
2021/08/14 04:37:34;;;;;;;10.82;5.80;;;15.80;99.90;;;;;;5048620;28;20029;-46
2021/08/14 04:40:00;;;;;;;12.18;5.90;;;15.90;99.90;;;;;;5048779;28;20099;-46
2021/08/14 04:42:26;;;;;;;18.88;8.23;;;15.80;99.90;;;;;;5048920;28;20112;-47
2021/08/14 04:44:51;;;;;;;12.23;5.57;;;15.80;99.90;;;;;;5048268;28;20120;-46
2021/08/14 04:47:17;;;;;;;13.63;6.10;;;15.80;99.90;;;;;;5048774;28;20238;-46
2021/08/14 04:49:42;;;;;;;13.75;5.85;;;15.80;99.90;;;;;;5048669;28;20025;-46
2021/08/14 04:52:08;;;;;;;13.60;5.60;;;15.90;99.90;;;;;;5047089;28;20021;-47
2021/08/14 04:54:33;;;;;;;11.27;5.90;;;15.90;99.90;;;;;;5048113;28;20100;-46
2021/08/14 04:56:59;;;;;;;11.68;6.05;;;15.90;99.90;;;;;;5049928;28;20295;-47
2021/08/14 04:59:24;;;;;;;8.63;5.22;;;15.90;99.90;;;;;;5052443;28;20068;-47
2021/08/14 05:01:50;;;;;;;13.60;5.43;;;15.90;99.90;;;;;;5051134;28;20025;-46
2021/08/14 05:04:16;;;;;;;12.32;5.47;;;16.00;99.90;;;;;;5050417;28;20494;-45
2021/08/14 05:06:41;;;;;;;10.57;4.97;;;16.10;99.90;;;;;;5050938;28;20067;-46
2021/08/14 05:09:07;;;;;;;12.07;5.25;;;16.20;99.90;;;;;;5052396;28;20082;-46
2021/08/14 05:11:32;;;;;;;8.30;4.78;;;16.30;99.90;;;;;;5052299;28;20382;-46
2021/08/14 05:13:58;;;;;;;9.43;5.05;;;16.30;99.90;;;;;;5050132;28;20044;-46
2021/08/14 05:16:25;;;;;;;9.38;4.72;;;16.30;99.90;;;;;;5052183;28;20035;-46
2021/08/14 05:18:51;;;;;;;9.48;4.80;;;16.40;99.90;;;;;;5052363;28;20029;-46
2021/08/14 05:21:17;;;;;;;11.77;4.95;;;16.40;99.90;;;;;;5050919;28;20025;-46
2021/08/14 05:23:44;;;;;;;12.23;4.60;;;16.50;99.90;;;;;;5051419;28;20032;-47
2021/08/14 05:26:09;;;;;;;12.27;5.55;;;16.60;99.90;;;;;;5050800;28;20029;-47
2021/08/14 05:28:35;;;;;;;13.90;5.63;;;16.60;99.90;;;;;;5052324;28;20104;-47
2021/08/14 05:31:01;;;;;;;9.40;4.80;;;16.60;99.90;;;;;;5052323;28;20060;-47
2021/08/14 05:33:26;;;;;;;9.98;4.90;;;16.70;99.90;;;;;;5051449;28;20502;-47
2021/08/14 05:35:52;;;;;;;8.85;4.95;;;16.80;99.90;;;;;;5051656;28;20289;-47
2021/08/14 05:38:18;;;;;;;13.68;5.35;;;16.80;99.90;;;;;;5051770;28;20040;-47
2021/08/14 05:40:43;;;;;;;10.25;4.88;;;16.80;99.90;;;;;;5051763;28;20391;-47
2021/08/14 05:43:09;;;;;;;8.90;4.40;;;16.80;99.90;;;;;;5051631;28;20509;-47
2021/08/14 05:45:35;;;;;;;8.40;4.85;;;16.90;99.90;;;;;;5050163;28;20505;-47
2021/08/14 05:48:04;;;;;;;6.63;4.13;;;17.00;99.90;;;;;;5051729;28;20036;-46
2021/08/14 05:50:30;;;;;;;11.63;5.00;;;17.10;99.90;;;;;;5063194;28;20537;-47
2021/08/14 05:52:55;;;;;;;10.45;4.95;;;17.00;99.90;;;;;;5071533;28;20108;-47
2021/08/14 05:55:21;;;;;;;8.02;4.47;;;17.00;99.90;;;;;;5069508;28;20021;-46
2021/08/14 05:57:46;;;;;;;7.70;4.80;;;17.10;99.90;;;;;;5071287;28;20063;-48
2021/08/14 06:00:12;;;;;;;14.48;4.40;;;17.10;99.90;;;;;;5071427;28;20036;-46
2021/08/14 06:02:38;;;;;;;10.30;5.32;;;17.20;99.90;;;;;;5070207;28;20024;-47
2021/08/14 06:05:04;;;;;;;9.48;4.70;;;17.30;99.90;;;;;;5062581;28;20432;-47
2021/08/14 06:07:30;;;;;;;9.40;4.60;;;17.30;99.90;;;;;;5060697;28;20025;-47
2021/08/14 06:09:55;;;;;;;8.18;4.20;;;17.30;99.90;;;;;;5060101;28;20363;-46
2021/08/14 06:12:21;;;;;;;10.65;5.22;;;17.40;99.90;;;;;;5061512;28;20020;-46
2021/08/14 06:14:46;;;;;;;12.82;5.00;;;17.40;99.90;;;;;;5059416;28;20106;-48
2021/08/14 06:17:13;;;;;;;7.57;4.35;;;17.40;99.90;;;;;;5062358;28;20049;-47
2021/08/14 06:19:38;;;;;;;9.90;4.28;;;17.40;99.90;;;;;;5058945;28;20021;-42
2021/08/14 06:22:04;;;;;;;9.52;4.63;;;17.40;99.90;;;;;;5059401;28;20086;-43
2021/08/14 06:24:30;;;;;;;9.18;5.35;;;17.30;99.90;;;;;;5057602;28;20406;-41
2021/08/14 06:26:55;;;;;;;13.50;4.45;;;17.30;99.90;;;;;;5059059;28;20017;-41
2021/08/14 06:29:21;;;;;;;7.90;4.32;;;17.30;99.90;;;;;;5055731;28;20025;-43
2021/08/14 06:31:46;;;;;;;10.43;4.45;;;17.40;99.90;;;;;;5059050;28;20023;-43
2021/08/14 06:34:12;;;;;;;11.60;4.45;;;17.40;99.90;;;;;;5057323;28;20025;-43
2021/08/14 06:36:37;;;;;;;12.25;4.95;;;17.50;99.90;;;;;;5060857;28;20055;-43
2021/08/14 06:39:03;;;;;;;11.45;4.60;;;17.50;99.90;;;;;;5059545;28;20144;-44
2021/08/14 06:41:28;;;;;;;12.10;5.05;;;17.60;99.90;;;;;;5058833;28;20083;-44
2021/08/14 06:43:54;;;;;;;9.07;4.25;;;17.60;99.90;;;;;;5060101;28;20415;-43
2021/08/14 06:46:19;;;;;;;11.00;3.92;;;17.70;99.90;;;;;;5059068;28;20090;-42
2021/08/14 06:48:46;;;;;;;11.73;4.30;;;17.80;99.90;;;;;;5059319;28;20089;-44
2021/08/14 06:51:13;;;;;;;9.13;4.82;;;17.90;99.90;;;;;;5059781;28;20036;-43
2021/08/14 06:53:39;;;;;;;8.88;4.55;;;17.90;99.90;;;;;;5058734;28;20021;-42
2021/08/14 06:56:05;;;;;;;10.38;5.47;;;18.00;99.90;;;;;;5059465;28;20070;-43
2021/08/14 06:58:30;;;;;;;10.05;3.85;;;18.20;99.90;;;;;;5060711;28;20071;-43
2021/08/14 07:00:56;;;;;;;8.13;3.80;;;18.30;99.90;;;;;;5062055;28;20020;-42
2021/08/14 07:03:21;;;;;;;14.38;4.93;;;18.40;99.90;;;;;;5069350;28;20032;-41
2021/08/14 07:05:47;;;;;;;10.48;4.53;;;18.60;99.90;;;;;;5068447;28;20490;-41
2021/08/14 07:08:12;;;;;;;8.93;3.67;;;18.80;99.90;;;;;;5070057;28;20020;-43
2021/08/14 07:10:38;;;;;;;8.10;3.60;;;19.00;99.90;;;;;;5069891;28;20099;-42
2021/08/14 07:13:03;;;;;;;10.98;4.10;;;19.20;99.90;;;;;;5069891;28;20405;-42
2021/08/14 07:15:30;;;;;;;12.55;4.53;;;19.30;99.90;;;;;;5069201;28;20094;-42
2021/08/14 07:17:55;;;;;;;10.95;4.28;;;19.40;99.90;;;;;;5069645;28;20112;-45
2021/08/14 07:20:21;;;;;;;10.80;3.88;;;19.60;99.90;;;;;;5069241;28;20107;-42
2021/08/14 07:22:46;;;;;;;8.40;3.15;;;19.60;99.70;;;;;;5069650;28;20367;-42
2021/08/14 07:25:12;;;;;;;10.55;3.85;;;19.80;99.60;;;;;;5068930;28;20028;-42
2021/08/14 07:27:37;;;;;;;10.82;3.83;;;20.00;99.40;;;;;;5069736;28;20554;-42
2021/08/14 07:30:04;;;;;;;7.68;3.40;;;20.20;98.60;;;;;;5069600;28;20395;-42
2021/08/14 07:32:29;;;;;;;11.60;3.55;;;20.40;97.70;;;;;;5052067;28;20029;-43
2021/08/14 07:34:55;;;;;;;10.20;3.70;;;20.60;97.90;;;;;;5047470;28;20090;-44
2021/08/14 07:37:21;;;;;;;8.05;3.50;;;20.80;97.00;;;;;;5048217;28;20024;-44
2021/08/14 07:39:46;;;;;;;8.20;3.47;;;21.20;96.70;;;;;;5049313;28;20120;-43
2021/08/14 07:42:12;;;;;;;6.50;3.70;;;21.40;96.40;;;;;;5046051;28;20474;-43
2021/08/14 07:44:37;;;;;;;10.98;3.88;;;21.60;94.40;;;;;;5047823;28;20051;-47
2021/08/14 07:47:03;;;;;;;7.82;3.75;;;21.70;94.40;;;;;;5048830;28;20025;-49
2021/08/14 07:49:28;;;;;;;9.13;3.33;;;22.00;94.00;;;;;;5048737;28;20040;-46
2021/08/14 07:51:54;;;;;;;9.13;3.00;;;22.20;92.60;;;;;;5064122;28;20032;-47
2021/08/14 07:54:19;;;;;;;8.32;3.58;;;22.30;92.60;;;;;;5068499;28;20047;-50
2021/08/14 07:56:45;;;;;;;8.88;3.70;;;22.30;92.20;;;;;;5067975;28;20406;-47
2021/08/14 07:59:10;;;;;;;11.77;3.90;;;22.50;92.20;;;;;;5055379;28;20029;-48
2021/08/14 08:01:36;;;;;;;7.82;3.22;;;22.60;91.80;;;;;;5056595;28;20548;-47
2021/08/14 08:04:01;;;;;;;8.45;3.67;;;22.80;92.00;;;;;;5059330;28;20021;-48
2021/08/14 08:06:27;;;;;;;7.97;2.97;;;22.90;91.20;;;;;;5050835;28;20045;-47
2021/08/14 08:08:52;;;;;;;9.80;4.07;;;23.00;90.00;;;;;;5059461;28;20017;-47
2021/08/14 08:11:18;;;;;;;15.05;3.92;;;23.20;89.80;;;;;;5061784;28;20552;-47
2021/08/14 08:13:43;;;;;;;10.50;4.60;;;23.30;89.30;;;;;;5056258;28;20044;-47
2021/08/14 08:16:09;;;;;;;16.58;4.90;;;23.30;89.90;;;;;;5044806;28;20033;-47
2021/08/14 08:18:34;;;;;;;10.98;4.07;;;23.30;87.90;;;;;;5055990;28;20541;-48
2021/08/14 08:21:00;;;;;;;9.32;3.65;;;23.20;88.50;;;;;;5063217;28;20028;-47
2021/08/14 08:23:26;;;;;;;12.52;4.47;;;23.10;88.40;;;;;;5067877;28;20044;-46
2021/08/14 08:25:51;;;;;;;12.90;3.65;;;23.40;89.10;;;;;;5068648;28;20375;-46
2021/08/14 08:28:21;;;;;;;9.80;3.50;;;23.70;88.40;;;;;;5067954;28;20061;-50
2021/08/14 08:30:47;;;;;;;10.50;4.07;;;24.10;85.00;;;;;;5066381;28;20021;-48
2021/08/14 08:33:12;;;;;;;17.55;4.25;;;24.40;84.50;;;;;;5065472;28;20021;-47
2021/08/14 08:35:38;;;;;;;11.65;3.95;;;25.10;81.50;;;;;;5068602;28;20040;-47
2021/08/14 08:38:03;;;;;;;14.43;4.15;;;25.80;80.30;;;;;;5066502;28;20174;-48
2021/08/14 08:40:35;;;;;;;7.68;3.63;;;26.40;79.10;;;;;;5064801;28;20025;-49
2021/08/14 08:43:01;;;;;;;8.45;3.28;;;26.80;75.90;;;;;;5067694;28;20155;-48
2021/08/14 08:45:27;;;;;;;11.68;4.53;;;26.50;75.70;;;;;;5068127;28;20103;-47
2021/08/14 08:47:54;;;;;;;9.43;3.70;;;26.60;74.30;;;;;;5065028;28;20098;-47
2021/08/14 08:50:20;;;;;;;9.82;3.90;;;27.20;73.30;;;;;;5067998;28;20013;-48
2021/08/14 08:52:46;;;;;;;10.80;4.30;;;27.30;70.40;;;;;;5067862;28;20013;-49
2021/08/14 08:55:13;;;;;;;8.70;4.07;;;27.20;69.40;;;;;;5057905;28;20025;-47
2021/08/14 08:57:38;;;;;;;14.93;4.47;;;27.30;69.90;;;;;;5056704;28;20029;-50
2021/08/14 09:00:05;;;;;;;11.38;4.25;;;27.30;69.60;;;;;;5054722;28;20067;-48
2021/08/14 09:02:33;;;;;;;10.40;4.25;;;27.20;69.50;;;;;;5048371;28;20039;-47
2021/08/14 09:05:14;;;;;;;11.63;4.40;;;27.10;69.00;;;;;;5067980;28;20029;-48
2021/08/14 09:07:41;;;;;;;12.20;4.38;;;27.30;68.70;;;;;;5067497;28;20099;-47
2021/08/14 09:10:18;;;;;;;9.50;4.30;;;27.50;69.00;;;;;;5066034;28;20017;-47
2021/08/14 09:12:45;;;;;;;12.10;4.63;;;27.70;68.90;;;;;;5067873;28;20089;-47
2021/08/14 09:15:16;;;;;;;11.85;4.30;;;27.50;66.50;;;;;;5066823;28;20470;-46
2021/08/14 09:17:44;;;;;;;13.63;5.15;;;27.60;66.90;;;;;;5065774;28;20021;-49
2021/08/14 09:20:16;;;;;;;9.23;4.30;;;28.00;65.10;;;;;;5065209;28;20047;-48
2021/08/14 09:22:44;;;;;;;11.70;4.72;;;28.20;65.10;;;;;;5062061;28;20081;-47
2021/08/14 09:25:14;;;;;;;13.68;4.38;;;29.10;62.50;;;;;;5047844;28;20033;-47
2021/08/14 09:27:57;;;;;;;9.80;4.40;;;29.20;63.50;;;;;;5047721;28;20397;-47
2021/08/14 09:30:44;;;;;;;10.63;4.25;;;30.20;60.90;;;;;;5050968;28;20559;-48
2021/08/14 09:33:11;;;;;;;14.32;4.30;;;31.80;59.00;;;;;;5065489;28;20499;-49
2021/08/14 09:35:37;;;;;;;12.05;4.28;;;33.00;57.40;;;;;;5067935;28;20089;-47
2021/08/14 09:38:08;;;;;;;11.82;4.30;;;33.40;52.70;;;;;;5059962;28;20028;-43
2021/08/14 09:40:34;;;;;;;11.02;4.25;;;33.60;51.00;;;;;;5059649;28;20116;-45
2021/08/14 09:43:00;;;;;;;11.70;3.63;;;33.00;51.80;;;;;;5057011;28;20086;-43
2021/08/14 09:45:26;;;;;;;10.05;5.07;;;34.10;49.90;;;;;;5062220;28;20584;-44
2021/08/14 09:47:52;;;;;;;9.18;3.95;;;34.80;50.20;;;;;;5062286;28;20470;-43
2021/08/14 09:50:18;;;;;;;11.05;4.32;;;35.80;45.90;;;;;;5059174;28;20050;-43
2021/08/14 09:52:46;;;;;;;7.93;3.40;;;35.70;45.70;;;;;;5061950;28;20040;-46
2021/08/14 09:55:23;;;;;;;9.18;4.22;;;36.10;44.50;;;;;;5061552;28;20059;-44
2021/08/14 09:58:01;;;;;;;10.95;4.20;;;34.40;45.60;;;;;;5061827;28;20052;-46
2021/08/14 10:00:29;;;;;;;10.10;4.13;;;33.60;46.90;;;;;;5062000;28;20107;-44
2021/08/14 10:03:00;;;;;;;11.07;4.25;;;34.00;47.60;;;;;;5060184;28;20459;-43
2021/08/14 10:05:26;;;;;;;8.70;3.83;;;33.60;47.30;;;;;;5061745;28;20067;-44
2021/08/14 10:07:52;;;;;;;8.98;4.22;;;33.90;48.30;;;;;;5063962;28;20025;-43
2021/08/14 10:10:18;;;;;;;12.40;4.32;;;33.80;47.60;;;;;;5061098;28;20075;-45
2021/08/14 10:12:45;;;;;;;8.38;3.75;;;33.40;47.60;;;;;;5060975;28;20104;-43
2021/08/14 10:15:11;;;;;;;9.68;3.80;;;32.20;50.80;;;;;;5058593;28;20055;-43
2021/08/14 10:17:37;;;;;;;9.45;3.40;;;33.70;48.90;;;;;;5063685;28;20608;-43
2021/08/14 10:20:05;;;;;;;8.77;3.03;;;34.80;43.90;;;;;;5072444;28;20037;-45
2021/08/14 10:22:31;;;;;;;5.03;3.17;;;35.40;43.00;;;;;;5069314;28;20029;-44
2021/08/14 10:24:57;;;;;;;9.23;3.67;;;36.40;43.50;;;;;;5065709;28;20054;-44
2021/08/14 10:27:22;;;;;;;16.95;11.80;;;34.90;41.20;;;;;;5069901;28;20099;-44
2021/08/14 10:29:50;;;;;;;4.80;2.92;;;35.40;42.70;;;;;;5069174;28;20532;-43
2021/08/14 10:32:31;;;;;;;10.55;7.53;;;36.30;42.20;;;;;;5068953;28;20056;-44
2021/08/14 10:35:17;;;;;;;12.07;7.70;;;37.40;41.60;;;;;;5070463;28;20275;-47
2021/08/14 10:37:44;;;;;;;5.95;3.25;;;37.20;40.30;;;;;;5068743;28;20494;-45
2021/08/14 10:40:11;;;;;;;9.00;3.08;;;37.80;41.20;;;;;;5070524;28;20100;-45
2021/08/14 10:42:56;;;;;;;7.25;3.60;;;37.30;39.40;;;;;;5070306;28;20108;-44
2021/08/14 10:45:22;;;;;;;6.15;3.50;;;38.00;39.70;;;;;;5066253;28;20024;-44
2021/08/14 10:47:50;;;;;;;7.80;3.22;;;38.60;40.10;;;;;;5060328;28;20028;-43
2021/08/14 10:50:30;;;;;;;10.27;3.70;;;39.00;39.30;;;;;;5059816;28;20009;-44
2021/08/14 10:53:11;;;;;;;5.80;3.22;;;39.00;39.20;;;;;;5056771;28;20029;-43
2021/08/14 10:55:56;;;;;;;7.15;3.50;;;38.00;39.30;;;;;;5058097;28;20100;-44
2021/08/14 10:58:24;;;;;;;7.28;3.55;;;38.10;42.00;;;;;;5058022;28;20042;-43
2021/08/14 11:01:02;;;;;;;8.98;3.47;;;38.30;37.60;;;;;;5059561;28;20021;-43
2021/08/14 11:03:35;;;;;;;3.78;2.80;;;37.70;36.50;;;;;;5059279;28;20453;-43
2021/08/14 11:06:27;;;;;;;6.78;3.05;;;37.20;38.30;;;;;;5058061;28;20078;-44
2021/08/14 11:09:17;;;;;;;13.65;3.95;;;37.90;37.40;;;;;;5060058;28;20104;-44
2021/08/14 11:12:00;;;;;;;7.95;3.95;;;37.30;38.20;;;;;;5058121;28;20605;-43
2021/08/14 11:14:43;;;;;;;7.00;3.60;;;36.60;38.30;;;;;;5058501;28;20495;-46
2021/08/14 11:17:09;;;;;;;9.35;3.45;;;37.00;39.20;;;;;;5059827;28;20017;-46
2021/08/14 11:19:46;;;;;;;5.07;3.50;;;36.40;38.70;;;;;;5060011;28;20082;-44
2021/08/14 11:22:32;;;;;;;4.95;3.95;;;36.40;40.90;;;;;;5059193;28;20154;-43
2021/08/14 11:25:04;;;;;;;10.52;4.55;;;36.50;40.00;;;;;;5060363;28;20021;-44
2021/08/14 11:27:32;;;;;;;7.60;4.25;;;36.60;40.30;;;;;;5059749;28;20280;-45
2021/08/14 11:30:02;;;;;;;8.27;4.15;;;36.20;40.30;;;;;;5056674;28;20440;-44
2021/08/14 11:32:29;;;;;;;10.23;4.00;;;36.00;41.40;;;;;;5058960;28;20506;-44
2021/08/14 11:34:55;;;;;;;7.72;3.90;;;36.30;41.90;;;;;;5059308;28;20104;-44
2021/08/14 11:37:21;;;;;;;9.70;4.78;;;36.70;40.50;;;;;;5057122;28;20045;-44
2021/08/14 11:39:47;;;;;;;7.15;4.30;;;36.50;40.10;;;;;;5058144;28;20024;-44
2021/08/14 11:42:13;;;;;;;9.88;4.43;;;36.70;40.50;;;;;;5058894;28;20029;-43
2021/08/14 11:44:40;;;;;;;7.57;3.88;;;37.10;40.60;;;;;;5057469;28;20381;-44
2021/08/14 11:47:11;;;;;;;8.55;4.40;;;37.10;41.50;;;;;;5058768;28;20016;-43
2021/08/14 11:49:56;;;;;;;10.20;4.15;;;37.30;40.50;;;;;;5059908;28;20028;-44
2021/08/14 11:52:23;;;;;;;5.60;3.80;;;37.00;40.50;;;;;;5059364;28;20028;-47
2021/08/14 11:54:59;;;;;;;10.65;4.80;;;36.90;40.20;;;;;;5063173;28;20545;-47
2021/08/14 11:57:35;;;;;;;6.43;4.03;;;36.10;41.10;;;;;;5056776;28;20037;-50
2021/08/14 12:00:05;;;;;;;8.35;4.82;;;36.40;42.20;;;;;;5056612;28;20086;-48
2021/08/14 12:02:32;;;;;;;8.32;4.20;;;36.70;44.00;;;;;;5057092;28;20109;-47
2021/08/14 12:04:57;;;;;;;6.47;4.10;;;36.80;40.50;;;;;;5059380;28;20024;-48
2021/08/14 12:07:23;;;;;;;7.53;4.22;;;36.70;40.40;;;;;;5056794;28;20020;-47
2021/08/14 12:09:50;;;;;;;11.23;3.85;;;35.80;41.40;;;;;;5058653;28;20099;-47
2021/08/14 12:12:18;;;;;;;8.40;4.07;;;35.60;41.90;;;;;;5058197;28;20025;-47
2021/08/14 12:14:44;;;;;;;7.35;4.03;;;34.50;42.60;;;;;;5057517;28;20063;-49
2021/08/14 12:17:09;;;;;;;9.15;4.38;;;34.60;44.10;;;;;;5053094;28;20129;-47
2021/08/14 12:19:46;;;;;;;8.95;4.50;;;34.30;44.40;;;;;;5056983;28;20020;-48
2021/08/14 12:22:13;;;;;;;11.18;6.65;;;33.90;44.20;;;;;;5051319;28;20091;-47
2021/08/14 12:24:46;;;;;;;18.35;11.75;;;33.50;44.80;;;;;;5058436;28;20028;-48
2021/08/14 12:27:30;;;;;;;8.40;4.45;;;33.00;47.20;;;;;;5057503;28;20029;-46
2021/08/14 12:30:23;;;;;;;27.27;23.27;;;32.80;45.40;;;;;;5048679;28;20151;-48
2021/08/14 12:32:51;;;;;;;13.05;9.38;;;32.60;47.70;;;;;;5054429;28;20085;-48
2021/08/14 12:35:22;;;;;;;7.15;4.22;;;32.10;46.60;;;;;;5068559;28;20500;-48
2021/08/14 12:37:48;;;;;;;6.75;4.10;;;32.30;47.00;;;;;;5068141;28;20047;-48
2021/08/14 12:40:19;;;;;;;10.70;4.40;;;32.20;48.00;;;;;;5068589;28;20024;-47
2021/08/14 12:42:46;;;;;;;6.95;4.20;;;31.50;47.00;;;;;;5065795;28;20244;-47